sensor_id;sensor_type;location;lat;lon;timestamp;temperature;humidity
29093;DHT22;16167;48.768;14.984;2023-03-14T00:00:07;6.00;61.20
29093;DHT22;16167;48.768;14.984;2023-03-14T00:02:36;6.00;61.50
29093;DHT22;16167;48.768;14.984;2023-03-14T00:05:05;6.00;61.60
29093;DHT22;16167;48.768;14.984;2023-03-14T00:07:34;5.90;61.70
29093;DHT22;16167;48.768;14.984;2023-03-14T00:10:03;5.90;62.10
29093;DHT22;16167;48.768;14.984;2023-03-14T00:12:31;5.80;61.60
29093;DHT22;16167;48.768;14.984;2023-03-14T00:14:59;5.70;62.10
29093;DHT22;16167;48.768;14.984;2023-03-14T00:17:31;5.70;61.70
29093;DHT22;16167;48.768;14.984;2023-03-14T00:19:59;5.70;61.70
29093;DHT22;16167;48.768;14.984;2023-03-14T00:22:31;5.70;61.80
29093;DHT22;16167;48.768;14.984;2023-03-14T00:24:59;5.70;61.70
29093;DHT22;16167;48.768;14.984;2023-03-14T00:27:26;5.70;61.50
29093;DHT22;16167;48.768;14.984;2023-03-14T00:29:54;5.70;61.50
29093;DHT22;16167;48.768;14.984;2023-03-14T00:32:22;5.60;61.60
29093;DHT22;16167;48.768;14.984;2023-03-14T00:34:52;5.60;61.60
29093;DHT22;16167;48.768;14.984;2023-03-14T00:37:19;5.60;62.30
29093;DHT22;16167;48.768;14.984;2023-03-14T00:39:47;5.60;61.70
29093;DHT22;16167;48.768;14.984;2023-03-14T00:42:15;5.50;61.70
29093;DHT22;16167;48.768;14.984;2023-03-14T00:44:43;5.50;61.60
29093;DHT22;16167;48.768;14.984;2023-03-14T00:47:11;5.50;61.90
29093;DHT22;16167;48.768;14.984;2023-03-14T00:49:39;5.40;61.60
29093;DHT22;16167;48.768;14.984;2023-03-14T00:52:11;5.40;61.80
29093;DHT22;16167;48.768;14.984;2023-03-14T00:54:39;5.40;61.80
29093;DHT22;16167;48.768;14.984;2023-03-14T00:57:06;5.40;61.70
29093;DHT22;16167;48.768;14.984;2023-03-14T00:59:34;5.40;61.40
29093;DHT22;16167;48.768;14.984;2023-03-14T01:02:02;5.30;61.00
29093;DHT22;16167;48.768;14.984;2023-03-14T01:04:30;5.20;56.00
29093;DHT22;16167;48.768;14.984;2023-03-14T01:06:58;5.10;46.70
29093;DHT22;16167;48.768;14.984;2023-03-14T01:09:27;5.00;23.50
29093;DHT22;16167;48.768;14.984;2023-03-14T01:11:55;5.10;15.40
29093;DHT22;16167;48.768;14.984;2023-03-14T01:14:23;5.00;5.30
29093;DHT22;16167;48.768;14.984;2023-03-14T01:16:51;5.10;6.30
29093;DHT22;16167;48.768;14.984;2023-03-14T01:19:19;5.00;7.70
29093;DHT22;16167;48.768;14.984;2023-03-14T01:21:47;5.00;10.80
29093;DHT22;16167;48.768;14.984;2023-03-14T01:24:15;5.00;9.50
29093;DHT22;16167;48.768;14.984;2023-03-14T01:26:44;4.90;10.50
29093;DHT22;16167;48.768;14.984;2023-03-14T01:29:12;4.90;12.20
29093;DHT22;16167;48.768;14.984;2023-03-14T01:31:40;4.90;11.10
29093;DHT22;16167;48.768;14.984;2023-03-14T01:34:07;4.80;12.00
29093;DHT22;16167;48.768;14.984;2023-03-14T01:36:35;4.70;9.30
29093;DHT22;16167;48.768;14.984;2023-03-14T01:39:03;4.70;1.00
29093;DHT22;16167;48.768;14.984;2023-03-14T01:41:32;4.60;1.00
29093;DHT22;16167;48.768;14.984;2023-03-14T01:44:01;4.60;1.00
29093;DHT22;16167;48.768;14.984;2023-03-14T01:46:39;4.60;1.00
29093;DHT22;16167;48.768;14.984;2023-03-14T01:49:09;4.50;1.00
29093;DHT22;16167;48.768;14.984;2023-03-14T01:51:40;4.50;1.00
29093;DHT22;16167;48.768;14.984;2023-03-14T01:54:10;4.40;1.00
29093;DHT22;16167;48.768;14.984;2023-03-14T01:56:39;4.30;1.00
29093;DHT22;16167;48.768;14.984;2023-03-14T01:59:10;4.30;1.00
29093;DHT22;16167;48.768;14.984;2023-03-14T02:01:38;4.30;1.00
29093;DHT22;16167;48.768;14.984;2023-03-14T02:04:07;4.30;1.00
29093;DHT22;16167;48.768;14.984;2023-03-14T02:06:39;4.40;1.00
29093;DHT22;16167;48.768;14.984;2023-03-14T02:09:08;4.30;1.00
29093;DHT22;16167;48.768;14.984;2023-03-14T02:11:36;4.30;1.00
29093;DHT22;16167;48.768;14.984;2023-03-14T02:14:04;4.20;1.00
29093;DHT22;16167;48.768;14.984;2023-03-14T02:16:33;4.30;1.00
29093;DHT22;16167;48.768;14.984;2023-03-14T02:19:01;4.30;1.00
29093;DHT22;16167;48.768;14.984;2023-03-14T02:21:34;4.30;1.00
29093;DHT22;16167;48.768;14.984;2023-03-14T02:24:07;4.20;1.00
29093;DHT22;16167;48.768;14.984;2023-03-14T02:26:38;4.20;1.00
29093;DHT22;16167;48.768;14.984;2023-03-14T02:29:09;4.20;1.00
29093;DHT22;16167;48.768;14.984;2023-03-14T02:31:36;4.20;1.00
29093;DHT22;16167;48.768;14.984;2023-03-14T02:34:04;4.20;1.00
29093;DHT22;16167;48.768;14.984;2023-03-14T02:36:33;4.10;1.00
29093;DHT22;16167;48.768;14.984;2023-03-14T02:39:04;4.10;1.00
29093;DHT22;16167;48.768;14.984;2023-03-14T02:41:34;4.00;1.00
29093;DHT22;16167;48.768;14.984;2023-03-14T02:44:02;4.00;1.00
29093;DHT22;16167;48.768;14.984;2023-03-14T02:46:32;4.00;1.00
29093;DHT22;16167;48.768;14.984;2023-03-14T02:49:02;4.00;1.00
29093;DHT22;16167;48.768;14.984;2023-03-14T02:51:30;3.90;1.00
29093;DHT22;16167;48.768;14.984;2023-03-14T02:53:59;3.90;1.00
29093;DHT22;16167;48.768;14.984;2023-03-14T02:56:27;3.90;1.00
29093;DHT22;16167;48.768;14.984;2023-03-14T02:58:54;3.90;1.00
29093;DHT22;16167;48.768;14.984;2023-03-14T03:01:24;3.80;1.00
29093;DHT22;16167;48.768;14.984;2023-03-14T03:03:53;3.80;1.00
29093;DHT22;16167;48.768;14.984;2023-03-14T03:06:21;3.80;1.00
29093;DHT22;16167;48.768;14.984;2023-03-14T03:08:49;3.70;1.00
29093;DHT22;16167;48.768;14.984;2023-03-14T03:11:17;3.70;1.00
29093;DHT22;16167;48.768;14.984;2023-03-14T03:13:45;3.70;2.20
29093;DHT22;16167;48.768;14.984;2023-03-14T03:16:13;3.70;11.60
29093;DHT22;16167;48.768;14.984;2023-03-14T03:18:41;3.70;5.20
29093;DHT22;16167;48.768;14.984;2023-03-14T03:21:11;3.70;4.30
29093;DHT22;16167;48.768;14.984;2023-03-14T03:23:38;3.60;4.40
29093;DHT22;16167;48.768;14.984;2023-03-14T03:26:08;3.70;6.50
29093;DHT22;16167;48.768;14.984;2023-03-14T03:28:36;3.70;5.60
29093;DHT22;16167;48.768;14.984;2023-03-14T03:31:07;3.70;6.40
29093;DHT22;16167;48.768;14.984;2023-03-14T03:33:35;3.60;3.70
29093;DHT22;16167;48.768;14.984;2023-03-14T03:36:03;3.60;4.80
29093;DHT22;16167;48.768;14.984;2023-03-14T03:38:33;3.60;10.90
29093;DHT22;16167;48.768;14.984;2023-03-14T03:41:02;3.60;11.40
29093;DHT22;16167;48.768;14.984;2023-03-14T03:43:29;3.60;9.00
29093;DHT22;16167;48.768;14.984;2023-03-14T03:45:57;3.50;10.20
29093;DHT22;16167;48.768;14.984;2023-03-14T03:48:25;3.50;9.00
29093;DHT22;16167;48.768;14.984;2023-03-14T03:50:53;3.50;9.60
29093;DHT22;16167;48.768;14.984;2023-03-14T03:53:21;3.60;14.80
29093;DHT22;16167;48.768;14.984;2023-03-14T03:56:00;3.60;10.30
29093;DHT22;16167;48.768;14.984;2023-03-14T03:58:28;3.50;9.20
29093;DHT22;16167;48.768;14.984;2023-03-14T04:00:56;3.50;6.80
29093;DHT22;16167;48.768;14.984;2023-03-14T04:03:24;3.50;12.40
29093;DHT22;16167;48.768;14.984;2023-03-14T04:05:59;3.60;18.40
29093;DHT22;16167;48.768;14.984;2023-03-14T04:08:27;3.60;19.40
29093;DHT22;16167;48.768;14.984;2023-03-14T04:10:55;3.60;19.50
29093;DHT22;16167;48.768;14.984;2023-03-14T04:13:25;3.60;16.20
29093;DHT22;16167;48.768;14.984;2023-03-14T04:15:53;3.60;13.30
29093;DHT22;16167;48.768;14.984;2023-03-14T04:18:22;3.60;9.60
29093;DHT22;16167;48.768;14.984;2023-03-14T04:20:51;3.70;9.80
29093;DHT22;16167;48.768;14.984;2023-03-14T04:23:19;3.70;9.40
29093;DHT22;16167;48.768;14.984;2023-03-14T04:25:48;3.70;11.40
29093;DHT22;16167;48.768;14.984;2023-03-14T04:28:18;3.60;11.00
29093;DHT22;16167;48.768;14.984;2023-03-14T04:30:47;3.60;16.40
29093;DHT22;16167;48.768;14.984;2023-03-14T04:33:15;3.50;13.30
29093;DHT22;16167;48.768;14.984;2023-03-14T04:35:44;3.50;14.50
29093;DHT22;16167;48.768;14.984;2023-03-14T04:38:12;3.50;15.40
29093;DHT22;16167;48.768;14.984;2023-03-14T04:40:40;3.50;13.30
29093;DHT22;16167;48.768;14.984;2023-03-14T04:43:08;3.50;19.60
29093;DHT22;16167;48.768;14.984;2023-03-14T04:45:39;3.50;19.00
29093;DHT22;16167;48.768;14.984;2023-03-14T04:48:10;3.50;24.70
29093;DHT22;16167;48.768;14.984;2023-03-14T04:50:37;3.50;21.30
29093;DHT22;16167;48.768;14.984;2023-03-14T04:53:05;3.50;18.90
29093;DHT22;16167;48.768;14.984;2023-03-14T04:55:33;3.60;19.10
29093;DHT22;16167;48.768;14.984;2023-03-14T04:58:02;3.60;19.00
29093;DHT22;16167;48.768;14.984;2023-03-14T05:00:30;3.60;20.50
29093;DHT22;16167;48.768;14.984;2023-03-14T05:02:58;3.60;15.30
29093;DHT22;16167;48.768;14.984;2023-03-14T05:05:27;3.60;13.30
29093;DHT22;16167;48.768;14.984;2023-03-14T05:07:55;3.60;17.20
29093;DHT22;16167;48.768;14.984;2023-03-14T05:10:23;3.60;18.20
29093;DHT22;16167;48.768;14.984;2023-03-14T05:12:52;3.70;23.10
29093;DHT22;16167;48.768;14.984;2023-03-14T05:15:19;3.80;30.60
29093;DHT22;16167;48.768;14.984;2023-03-14T05:17:47;3.90;46.00
29093;DHT22;16167;48.768;14.984;2023-03-14T05:20:15;4.20;46.50
29093;DHT22;16167;48.768;14.984;2023-03-14T05:22:45;4.50;54.30
29093;DHT22;16167;48.768;14.984;2023-03-14T05:25:12;4.80;52.50
29093;DHT22;16167;48.768;14.984;2023-03-14T05:27:40;5.10;41.20
29093;DHT22;16167;48.768;14.984;2023-03-14T05:30:09;5.20;36.10
29093;DHT22;16167;48.768;14.984;2023-03-14T05:32:37;5.30;41.30
29093;DHT22;16167;48.768;14.984;2023-03-14T05:35:05;5.40;40.00
29093;DHT22;16167;48.768;14.984;2023-03-14T05:37:33;5.60;42.90
29093;DHT22;16167;48.768;14.984;2023-03-14T05:40:03;5.80;50.80
29093;DHT22;16167;48.768;14.984;2023-03-14T05:42:32;6.10;63.20
29093;DHT22;16167;48.768;14.984;2023-03-14T05:45:00;6.40;56.60
29093;DHT22;16167;48.768;14.984;2023-03-14T05:47:28;6.80;56.70
29093;DHT22;16167;48.768;14.984;2023-03-14T05:49:56;7.00;46.50
29093;DHT22;16167;48.768;14.984;2023-03-14T05:52:24;7.20;36.90
29093;DHT22;16167;48.768;14.984;2023-03-14T05:54:52;7.40;36.60
29093;DHT22;16167;48.768;14.984;2023-03-14T05:57:21;7.50;37.10
29093;DHT22;16167;48.768;14.984;2023-03-14T05:59:49;7.70;29.20
29093;DHT22;16167;48.768;14.984;2023-03-14T06:02:17;7.80;27.90
29093;DHT22;16167;48.768;14.984;2023-03-14T06:04:45;7.90;26.70
29093;DHT22;16167;48.768;14.984;2023-03-14T06:07:13;8.00;27.10
29093;DHT22;16167;48.768;14.984;2023-03-14T06:09:41;8.10;25.00
29093;DHT22;16167;48.768;14.984;2023-03-14T06:12:08;8.20;26.00
29093;DHT22;16167;48.768;14.984;2023-03-14T06:14:38;8.30;25.60
29093;DHT22;16167;48.768;14.984;2023-03-14T06:17:05;8.50;23.60
29093;DHT22;16167;48.768;14.984;2023-03-14T06:19:33;8.60;22.90
29093;DHT22;16167;48.768;14.984;2023-03-14T06:22:01;8.70;21.60
29093;DHT22;16167;48.768;14.984;2023-03-14T06:24:29;8.90;27.20
29093;DHT22;16167;48.768;14.984;2023-03-14T06:26:57;9.10;26.20
29093;DHT22;16167;48.768;14.984;2023-03-14T06:29:25;9.10;26.10
29093;DHT22;16167;48.768;14.984;2023-03-14T06:31:54;9.10;26.70
29093;DHT22;16167;48.768;14.984;2023-03-14T06:34:22;9.20;27.90
29093;DHT22;16167;48.768;14.984;2023-03-14T06:36:50;9.20;27.20
29093;DHT22;16167;48.768;14.984;2023-03-14T06:39:18;9.40;29.50
29093;DHT22;16167;48.768;14.984;2023-03-14T06:41:45;9.50;37.30
29093;DHT22;16167;48.768;14.984;2023-03-14T06:44:13;9.50;39.20
29093;DHT22;16167;48.768;14.984;2023-03-14T06:46:41;9.50;40.90
29093;DHT22;16167;48.768;14.984;2023-03-14T06:49:10;9.50;40.50
29093;DHT22;16167;48.768;14.984;2023-03-14T06:51:38;9.50;40.40
29093;DHT22;16167;48.768;14.984;2023-03-14T06:54:06;9.50;40.00
29093;DHT22;16167;48.768;14.984;2023-03-14T06:56:34;9.60;42.10
29093;DHT22;16167;48.768;14.984;2023-03-14T06:59:02;9.70;43.80
29093;DHT22;16167;48.768;14.984;2023-03-14T07:01:30;9.70;45.80
29093;DHT22;16167;48.768;14.984;2023-03-14T07:03:59;9.70;46.40
29093;DHT22;16167;48.768;14.984;2023-03-14T07:06:28;9.70;46.60
29093;DHT22;16167;48.768;14.984;2023-03-14T07:08:56;9.60;41.00
29093;DHT22;16167;48.768;14.984;2023-03-14T07:11:24;9.60;41.70
29093;DHT22;16167;48.768;14.984;2023-03-14T07:13:52;9.60;41.50
29093;DHT22;16167;48.768;14.984;2023-03-14T07:16:20;9.60;41.60
29093;DHT22;16167;48.768;14.984;2023-03-14T07:18:48;9.60;41.40
29093;DHT22;16167;48.768;14.984;2023-03-14T07:21:16;9.60;40.60
29093;DHT22;16167;48.768;14.984;2023-03-14T07:23:45;9.70;40.00
29093;DHT22;16167;48.768;14.984;2023-03-14T07:26:13;9.70;40.10
29093;DHT22;16167;48.768;14.984;2023-03-14T07:28:41;9.70;40.50
29093;DHT22;16167;48.768;14.984;2023-03-14T07:31:09;9.70;39.20
29093;DHT22;16167;48.768;14.984;2023-03-14T07:33:37;9.70;38.50
29093;DHT22;16167;48.768;14.984;2023-03-14T07:36:06;9.70;39.30
29093;DHT22;16167;48.768;14.984;2023-03-14T07:38:34;9.70;38.50
29093;DHT22;16167;48.768;14.984;2023-03-14T07:41:04;9.70;40.00
29093;DHT22;16167;48.768;14.984;2023-03-14T07:43:32;9.80;38.70
29093;DHT22;16167;48.768;14.984;2023-03-14T07:46:00;9.80;38.70
29093;DHT22;16167;48.768;14.984;2023-03-14T07:48:29;9.70;36.60
29093;DHT22;16167;48.768;14.984;2023-03-14T07:50:57;9.70;36.80
29093;DHT22;16167;48.768;14.984;2023-03-14T07:53:25;9.70;37.00
29093;DHT22;16167;48.768;14.984;2023-03-14T07:55:53;9.70;37.10
29093;DHT22;16167;48.768;14.984;2023-03-14T07:58:22;9.70;36.60
29093;DHT22;16167;48.768;14.984;2023-03-14T08:00:50;9.80;36.40
29093;DHT22;16167;48.768;14.984;2023-03-14T08:03:19;9.80;36.90
29093;DHT22;16167;48.768;14.984;2023-03-14T08:05:47;9.90;37.10
29093;DHT22;16167;48.768;14.984;2023-03-14T08:08:15;9.90;36.70
29093;DHT22;16167;48.768;14.984;2023-03-14T08:10:43;9.90;36.50
29093;DHT22;16167;48.768;14.984;2023-03-14T08:13:12;10.00;36.90
29093;DHT22;16167;48.768;14.984;2023-03-14T08:15:41;10.00;36.10
29093;DHT22;16167;48.768;14.984;2023-03-14T08:18:09;10.00;38.30
29093;DHT22;16167;48.768;14.984;2023-03-14T08:20:37;10.10;38.50
29093;DHT22;16167;48.768;14.984;2023-03-14T08:23:05;10.30;53.20
29093;DHT22;16167;48.768;14.984;2023-03-14T08:25:33;10.30;54.60
29093;DHT22;16167;48.768;14.984;2023-03-14T08:28:01;10.30;52.80
29093;DHT22;16167;48.768;14.984;2023-03-14T08:30:29;10.30;51.50
29093;DHT22;16167;48.768;14.984;2023-03-14T08:32:59;10.30;53.70
29093;DHT22;16167;48.768;14.984;2023-03-14T08:35:26;10.30;52.00
29093;DHT22;16167;48.768;14.984;2023-03-14T08:37:54;10.30;50.20
29093;DHT22;16167;48.768;14.984;2023-03-14T08:40:23;10.30;48.50
29093;DHT22;16167;48.768;14.984;2023-03-14T08:42:51;10.30;48.60
29093;DHT22;16167;48.768;14.984;2023-03-14T08:45:19;10.30;49.40
29093;DHT22;16167;48.768;14.984;2023-03-14T08:47:46;10.30;48.80
29093;DHT22;16167;48.768;14.984;2023-03-14T08:52:45;10.50;55.20
29093;DHT22;16167;48.768;14.984;2023-03-14T08:55:13;10.60;69.50
29093;DHT22;16167;48.768;14.984;2023-03-14T08:57:41;10.70;69.30
29093;DHT22;16167;48.768;14.984;2023-03-14T09:00:09;10.80;71.70
29093;DHT22;16167;48.768;14.984;2023-03-14T09:02:40;10.80;76.40
29093;DHT22;16167;48.768;14.984;2023-03-14T09:05:09;10.80;76.60
29093;DHT22;16167;48.768;14.984;2023-03-14T09:07:37;10.80;72.80
29093;DHT22;16167;48.768;14.984;2023-03-14T09:10:08;10.90;72.60
29093;DHT22;16167;48.768;14.984;2023-03-14T09:12:36;10.90;72.50
29093;DHT22;16167;48.768;14.984;2023-03-14T09:15:04;11.00;73.90
29093;DHT22;16167;48.768;14.984;2023-03-14T09:17:32;11.10;69.80
29093;DHT22;16167;48.768;14.984;2023-03-14T09:20:00;11.20;70.20
29093;DHT22;16167;48.768;14.984;2023-03-14T09:22:31;11.30;68.60
29093;DHT22;16167;48.768;14.984;2023-03-14T09:24:59;11.30;68.70
29093;DHT22;16167;48.768;14.984;2023-03-14T09:27:29;11.40;69.20
29093;DHT22;16167;48.768;14.984;2023-03-14T09:29:56;11.40;69.90
29093;DHT22;16167;48.768;14.984;2023-03-14T09:32:24;11.30;68.90
29093;DHT22;16167;48.768;14.984;2023-03-14T09:34:52;11.40;68.30
29093;DHT22;16167;48.768;14.984;2023-03-14T09:37:20;11.30;68.50
29093;DHT22;16167;48.768;14.984;2023-03-14T09:39:48;11.30;68.40
29093;DHT22;16167;48.768;14.984;2023-03-14T09:42:17;11.30;69.60
29093;DHT22;16167;48.768;14.984;2023-03-14T09:44:49;11.20;68.10
29093;DHT22;16167;48.768;14.984;2023-03-14T09:47:19;11.20;69.20
29093;DHT22;16167;48.768;14.984;2023-03-14T09:49:47;11.30;68.40
29093;DHT22;16167;48.768;14.984;2023-03-14T09:52:16;11.40;68.10
29093;DHT22;16167;48.768;14.984;2023-03-14T09:54:45;11.30;68.40
29093;DHT22;16167;48.768;14.984;2023-03-14T09:57:15;11.30;69.60
29093;DHT22;16167;48.768;14.984;2023-03-14T09:59:45;11.30;69.40
29093;DHT22;16167;48.768;14.984;2023-03-14T10:02:16;11.30;69.70
29093;DHT22;16167;48.768;14.984;2023-03-14T10:04:44;11.30;69.80
29093;DHT22;16167;48.768;14.984;2023-03-14T10:07:13;11.30;70.90
29093;DHT22;16167;48.768;14.984;2023-03-14T10:09:43;11.30;70.10
29093;DHT22;16167;48.768;14.984;2023-03-14T10:12:11;11.30;68.50
29093;DHT22;16167;48.768;14.984;2023-03-14T10:14:44;11.30;69.00
29093;DHT22;16167;48.768;14.984;2023-03-14T10:17:13;11.30;70.10
29093;DHT22;16167;48.768;14.984;2023-03-14T10:19:53;11.30;69.40
29093;DHT22;16167;48.768;14.984;2023-03-14T10:22:23;11.20;70.00
29093;DHT22;16167;48.768;14.984;2023-03-14T10:24:53;11.30;69.30
29093;DHT22;16167;48.768;14.984;2023-03-14T10:27:23;11.30;70.60
29093;DHT22;16167;48.768;14.984;2023-03-14T10:29:58;11.20;70.10
29093;DHT22;16167;48.768;14.984;2023-03-14T10:32:31;11.30;71.20
29093;DHT22;16167;48.768;14.984;2023-03-14T10:35:05;11.20;71.40
29093;DHT22;16167;48.768;14.984;2023-03-14T10:37:34;11.30;71.10
29093;DHT22;16167;48.768;14.984;2023-03-14T10:40:02;11.30;70.40
29093;DHT22;16167;48.768;14.984;2023-03-14T10:42:33;11.40;70.70
29093;DHT22;16167;48.768;14.984;2023-03-14T10:45:02;11.40;70.10
29093;DHT22;16167;48.768;14.984;2023-03-14T10:47:32;11.20;70.10
29093;DHT22;16167;48.768;14.984;2023-03-14T10:50:19;11.30;70.50
29093;DHT22;16167;48.768;14.984;2023-03-14T10:52:49;11.30;70.50
29093;DHT22;16167;48.768;14.984;2023-03-14T10:55:27;11.30;70.40
29093;DHT22;16167;48.768;14.984;2023-03-14T10:57:55;11.20;70.20
29093;DHT22;16167;48.768;14.984;2023-03-14T11:00:23;11.20;70.60
29093;DHT22;16167;48.768;14.984;2023-03-14T11:02:58;11.20;70.50
29093;DHT22;16167;48.768;14.984;2023-03-14T11:05:30;11.30;70.60
29093;DHT22;16167;48.768;14.984;2023-03-14T11:08:01;11.30;71.00
29093;DHT22;16167;48.768;14.984;2023-03-14T11:10:31;11.20;70.40
29093;DHT22;16167;48.768;14.984;2023-03-14T11:13:01;11.30;71.30
29093;DHT22;16167;48.768;14.984;2023-03-14T11:15:34;11.30;71.70
29093;DHT22;16167;48.768;14.984;2023-03-14T11:20:48;11.20;71.00
29093;DHT22;16167;48.768;14.984;2023-03-14T11:23:20;11.20;70.90
29093;DHT22;16167;48.768;14.984;2023-03-14T11:25:51;11.10;70.60
29093;DHT22;16167;48.768;14.984;2023-03-14T11:28:22;11.10;71.10
29093;DHT22;16167;48.768;14.984;2023-03-14T11:30:54;11.20;70.10
29093;DHT22;16167;48.768;14.984;2023-03-14T11:33:24;11.20;69.80
29093;DHT22;16167;48.768;14.984;2023-03-14T11:35:55;11.20;69.80
29093;DHT22;16167;48.768;14.984;2023-03-14T11:38:28;11.20;69.90
29093;DHT22;16167;48.768;14.984;2023-03-14T11:40:57;11.10;70.00
29093;DHT22;16167;48.768;14.984;2023-03-14T11:43:26;11.10;69.70
29093;DHT22;16167;48.768;14.984;2023-03-14T11:45:57;11.10;72.10
29093;DHT22;16167;48.768;14.984;2023-03-14T11:48:28;11.10;71.80
29093;DHT22;16167;48.768;14.984;2023-03-14T11:51:00;11.10;72.50
29093;DHT22;16167;48.768;14.984;2023-03-14T11:53:36;11.10;71.90
29093;DHT22;16167;48.768;14.984;2023-03-14T11:56:09;11.20;72.70
29093;DHT22;16167;48.768;14.984;2023-03-14T11:58:40;11.20;73.00
29093;DHT22;16167;48.768;14.984;2023-03-14T12:01:11;11.30;70.90
29093;DHT22;16167;48.768;14.984;2023-03-14T12:03:42;11.40;70.40
29093;DHT22;16167;48.768;14.984;2023-03-14T12:06:15;11.50;70.60
29093;DHT22;16167;48.768;14.984;2023-03-14T12:08:45;11.40;70.30
29093;DHT22;16167;48.768;14.984;2023-03-14T12:11:16;11.30;69.00
29093;DHT22;16167;48.768;14.984;2023-03-14T12:13:46;11.40;69.60
29093;DHT22;16167;48.768;14.984;2023-03-14T12:16:26;11.40;70.10
29093;DHT22;16167;48.768;14.984;2023-03-14T12:18:55;11.20;69.80
29093;DHT22;16167;48.768;14.984;2023-03-14T12:21:24;11.30;71.10
29093;DHT22;16167;48.768;14.984;2023-03-14T12:24:15;11.40;70.10
29093;DHT22;16167;48.768;14.984;2023-03-14T12:26:46;11.50;70.50
29093;DHT22;16167;48.768;14.984;2023-03-14T12:29:15;11.50;70.40
29093;DHT22;16167;48.768;14.984;2023-03-14T12:31:43;11.60;70.90
29093;DHT22;16167;48.768;14.984;2023-03-14T12:34:28;11.60;70.40
29093;DHT22;16167;48.768;14.984;2023-03-14T12:37:00;11.50;70.80
29093;DHT22;16167;48.768;14.984;2023-03-14T12:39:34;11.50;71.10
29093;DHT22;16167;48.768;14.984;2023-03-14T12:42:04;11.30;73.60
29093;DHT22;16167;48.768;14.984;2023-03-14T12:44:38;11.40;73.60
29093;DHT22;16167;48.768;14.984;2023-03-14T12:50:12;11.30;73.60
29093;DHT22;16167;48.768;14.984;2023-03-14T12:52:43;11.30;72.60
29093;DHT22;16167;48.768;14.984;2023-03-14T12:55:15;11.30;72.40
29093;DHT22;16167;48.768;14.984;2023-03-14T12:57:47;11.30;72.60
29093;DHT22;16167;48.768;14.984;2023-03-14T13:00:17;11.30;71.80
29093;DHT22;16167;48.768;14.984;2023-03-14T13:02:46;11.40;71.60
29093;DHT22;16167;48.768;14.984;2023-03-14T13:05:16;11.30;71.10
29093;DHT22;16167;48.768;14.984;2023-03-14T13:08:06;11.30;71.20
29093;DHT22;16167;48.768;14.984;2023-03-14T13:10:41;11.20;72.00
29093;DHT22;16167;48.768;14.984;2023-03-14T13:13:15;11.20;72.40
29093;DHT22;16167;48.768;14.984;2023-03-14T13:15:45;11.20;72.70
29093;DHT22;16167;48.768;14.984;2023-03-14T13:18:16;11.10;72.50
29093;DHT22;16167;48.768;14.984;2023-03-14T13:20:46;11.10;72.10
29093;DHT22;16167;48.768;14.984;2023-03-14T13:23:21;11.00;71.20
29093;DHT22;16167;48.768;14.984;2023-03-14T13:25:49;10.90;72.60
29093;DHT22;16167;48.768;14.984;2023-03-14T13:28:17;10.80;71.60
29093;DHT22;16167;48.768;14.984;2023-03-14T13:30:45;10.90;71.70
29093;DHT22;16167;48.768;14.984;2023-03-14T13:33:14;10.90;71.80
29093;DHT22;16167;48.768;14.984;2023-03-14T13:35:44;11.00;72.50
29093;DHT22;16167;48.768;14.984;2023-03-14T13:38:15;11.00;71.80
29093;DHT22;16167;48.768;14.984;2023-03-14T13:40:45;10.90;71.30
29093;DHT22;16167;48.768;14.984;2023-03-14T13:43:20;10.80;72.10
29093;DHT22;16167;48.768;14.984;2023-03-14T13:45:49;10.80;71.20
29093;DHT22;16167;48.768;14.984;2023-03-14T13:48:18;10.70;71.30
29093;DHT22;16167;48.768;14.984;2023-03-14T13:50:50;10.70;72.00
29093;DHT22;16167;48.768;14.984;2023-03-14T13:53:19;10.60;73.40
29093;DHT22;16167;48.768;14.984;2023-03-14T13:55:48;10.60;76.40
29093;DHT22;16167;48.768;14.984;2023-03-14T13:58:20;10.50;77.60
29093;DHT22;16167;48.768;14.984;2023-03-14T14:00:58;10.50;76.50
29093;DHT22;16167;48.768;14.984;2023-03-14T14:03:27;10.40;77.30
29093;DHT22;16167;48.768;14.984;2023-03-14T14:05:56;10.40;76.10
29093;DHT22;16167;48.768;14.984;2023-03-14T14:08:24;10.30;76.40
29093;DHT22;16167;48.768;14.984;2023-03-14T14:10:56;10.30;69.40
29093;DHT22;16167;48.768;14.984;2023-03-14T14:13:24;10.30;65.70
29093;DHT22;16167;48.768;14.984;2023-03-14T14:15:55;10.30;64.60
29093;DHT22;16167;48.768;14.984;2023-03-14T14:18:23;10.20;66.00
29093;DHT22;16167;48.768;14.984;2023-03-14T14:20:54;10.20;63.60
29093;DHT22;16167;48.768;14.984;2023-03-14T14:23:24;10.20;63.10
29093;DHT22;16167;48.768;14.984;2023-03-14T14:25:56;10.30;64.00
29093;DHT22;16167;48.768;14.984;2023-03-14T14:28:25;10.20;64.00
29093;DHT22;16167;48.768;14.984;2023-03-14T14:31:01;10.30;66.00
29093;DHT22;16167;48.768;14.984;2023-03-14T14:33:29;10.40;78.40
29093;DHT22;16167;48.768;14.984;2023-03-14T14:35:57;10.40;79.10
29093;DHT22;16167;48.768;14.984;2023-03-14T14:38:26;10.60;79.50
29093;DHT22;16167;48.768;14.984;2023-03-14T14:40:58;10.80;82.50
29093;DHT22;16167;48.768;14.984;2023-03-14T14:43:27;10.90;82.10
29093;DHT22;16167;48.768;14.984;2023-03-14T14:45:56;11.00;82.90
29093;DHT22;16167;48.768;14.984;2023-03-14T14:48:25;11.10;83.40
29093;DHT22;16167;48.768;14.984;2023-03-14T14:50:58;11.20;83.70
29093;DHT22;16167;48.768;14.984;2023-03-14T14:53:27;11.70;83.40
29093;DHT22;16167;48.768;14.984;2023-03-14T14:55:57;12.50;80.00
29093;DHT22;16167;48.768;14.984;2023-03-14T14:58:26;13.20;77.50
29093;DHT22;16167;48.768;14.984;2023-03-14T15:00:56;13.40;77.70
29093;DHT22;16167;48.768;14.984;2023-03-14T15:03:25;13.40;77.20
29093;DHT22;16167;48.768;14.984;2023-03-14T15:05:54;13.30;76.40
29093;DHT22;16167;48.768;14.984;2023-03-14T15:08:23;13.10;75.70
29093;DHT22;16167;48.768;14.984;2023-03-14T15:10:51;13.00;73.30
29093;DHT22;16167;48.768;14.984;2023-03-14T15:13:21;12.90;74.00
29093;DHT22;16167;48.768;14.984;2023-03-14T15:15:49;12.90;72.90
29093;DHT22;16167;48.768;14.984;2023-03-14T15:18:23;12.90;73.30
29093;DHT22;16167;48.768;14.984;2023-03-14T15:20:52;12.90;72.60
29093;DHT22;16167;48.768;14.984;2023-03-14T15:23:21;12.70;72.60
29093;DHT22;16167;48.768;14.984;2023-03-14T15:25:49;12.60;73.10
29093;DHT22;16167;48.768;14.984;2023-03-14T15:28:23;12.60;73.50
29093;DHT22;16167;48.768;14.984;2023-03-14T15:30:52;12.40;74.10
29093;DHT22;16167;48.768;14.984;2023-03-14T15:33:20;12.40;74.20
29093;DHT22;16167;48.768;14.984;2023-03-14T15:35:49;12.30;74.20
29093;DHT22;16167;48.768;14.984;2023-03-14T15:38:18;12.30;75.60
29093;DHT22;16167;48.768;14.984;2023-03-14T15:40:47;12.20;75.50
29093;DHT22;16167;48.768;14.984;2023-03-14T15:43:15;12.10;76.80
29093;DHT22;16167;48.768;14.984;2023-03-14T15:45:44;12.00;76.40